createdAt,value
2018-11-10T00:54:01.261Z,7.20
2018-11-10T00:56:30.026Z,7.20
2018-11-10T00:58:58.673Z,7.20
2018-11-10T01:01:27.621Z,7.20
2018-11-10T01:03:56.361Z,7.20
2018-11-10T01:06:25.034Z,7.10
2018-11-10T01:08:54.074Z,7.10
2018-11-10T01:11:22.456Z,7.10
2018-11-10T01:13:50.850Z,7.10
2018-11-10T01:16:19.458Z,7.10
2018-11-10T01:18:48.092Z,7.10
2018-11-10T01:21:16.872Z,7.10
2018-11-10T01:23:45.224Z,7.10
2018-11-10T01:26:14.243Z,7.10
2018-11-10T01:28:42.876Z,7.10
2018-11-10T01:31:11.579Z,7.10
2018-11-10T01:33:40.266Z,7.00
2018-11-10T01:36:08.913Z,7.00
2018-11-10T01:38:37.418Z,7.00
2018-11-10T01:41:07.315Z,7.00
2018-11-10T01:43:35.708Z,7.00
2018-11-10T01:46:04.324Z,7.00
2018-11-10T01:48:33.004Z,7.00
2018-11-10T01:51:01.458Z,7.10
2018-11-10T01:53:29.887Z,7.10
2018-11-10T01:55:58.448Z,7.10
2018-11-10T01:58:27.017Z,7.10
2018-11-10T02:00:55.874Z,7.10
2018-11-10T02:03:24.384Z,7.00
2018-11-10T02:05:52.739Z,7.10
2018-11-10T02:08:21.122Z,7.00
2018-11-10T02:10:49.498Z,7.00
2018-11-10T02:13:17.929Z,7.00
2018-11-10T02:15:46.717Z,7.00
2018-11-10T02:18:15.093Z,6.90
2018-11-10T02:20:43.565Z,7.00
2018-11-10T02:23:12.165Z,7.00
2018-11-10T02:25:41.155Z,7.00
2018-11-10T02:28:09.586Z,6.90
2018-11-10T02:30:38.139Z,6.90
2018-11-10T02:33:06.512Z,6.90
2018-11-10T02:35:34.980Z,6.90
2018-11-10T02:38:03.349Z,6.90
2018-11-10T02:40:31.729Z,6.90
2018-11-10T02:43:00.433Z,6.90
2018-11-10T02:45:28.841Z,7.00
2018-11-10T02:47:57.226Z,7.00
2018-11-10T02:50:25.603Z,7.00
2018-11-10T02:52:54.347Z,7.00
2018-11-10T02:55:22.922Z,7.00
2018-11-10T02:57:51.334Z,7.00
2018-11-10T03:00:19.737Z,6.90
2018-11-10T03:02:48.093Z,6.90
2018-11-10T03:05:16.473Z,6.90
2018-11-10T03:07:44.841Z,6.90
2018-11-10T03:10:13.543Z,6.80
2018-11-10T03:12:42.284Z,6.80
2018-11-10T03:15:11.813Z,6.80
2018-11-10T03:17:40.190Z,6.80
2018-11-10T03:20:11.063Z,6.90
2018-11-10T03:22:39.418Z,6.80
2018-11-10T03:25:08.495Z,6.80
2018-11-10T03:27:37.153Z,6.80
2018-11-10T03:30:06.361Z,6.80
2018-11-10T03:32:35.868Z,6.80
2018-11-10T03:35:04.816Z,6.80
2018-11-10T03:37:33.210Z,6.80
2018-11-10T03:40:02.334Z,6.70
2018-11-10T03:42:30.760Z,6.70
2018-11-10T03:44:59.371Z,6.70
2018-11-10T03:47:28.668Z,6.70
2018-11-10T03:49:57.395Z,6.70
2018-11-10T03:52:26.122Z,6.60
2018-11-10T03:54:54.944Z,6.60
2018-11-10T03:57:23.311Z,6.60
2018-11-10T03:59:51.836Z,6.60
2018-11-10T04:02:20.215Z,6.60
2018-11-10T04:04:48.568Z,6.60
2018-11-10T04:07:17.285Z,6.60
2018-11-10T04:09:45.661Z,6.60
2018-11-10T04:12:14.359Z,6.60
2018-11-10T04:14:42.760Z,6.60
2018-11-10T04:17:11.442Z,6.70
2018-11-10T04:19:39.947Z,6.70
2018-11-10T04:22:08.448Z,6.70
2018-11-10T04:24:36.841Z,6.70
2018-11-10T04:27:05.301Z,6.70
2018-11-10T04:29:33.685Z,6.70
2018-11-10T04:32:02.075Z,6.70
2018-11-10T04:34:30.461Z,6.70
2018-11-10T04:36:58.885Z,6.70
2018-11-10T04:39:27.244Z,6.70
2018-11-10T04:41:56.198Z,6.70
2018-11-10T04:44:24.590Z,6.60
2018-11-10T04:46:53.443Z,6.70
2018-11-10T04:49:22.119Z,6.70
2018-11-10T04:51:50.592Z,6.70
2018-11-10T04:54:18.988Z,6.70
2018-11-10T04:56:47.589Z,6.70
2018-11-10T04:59:15.989Z,6.70
2018-11-10T05:01:44.935Z,6.60
2018-11-10T05:04:14.222Z,6.60
2018-11-10T05:06:42.587Z,6.60
2018-11-10T05:09:11.939Z,6.60
2018-11-10T05:11:40.933Z,6.60
2018-11-10T05:14:09.906Z,6.70
2018-11-10T05:16:38.924Z,6.70
2018-11-10T05:19:07.289Z,6.80
2018-11-10T05:21:36.050Z,6.70
2018-11-10T05:24:04.978Z,6.70
2018-11-10T05:26:34.353Z,6.80
2018-11-10T05:29:03.224Z,6.80
2018-11-10T05:31:31.971Z,6.80
2018-11-10T05:34:00.384Z,6.70
2018-11-10T05:36:28.762Z,6.70
2018-11-10T05:38:57.704Z,6.60
2018-11-10T05:41:26.344Z,6.60
2018-11-10T05:43:55.089Z,6.60
2018-11-10T05:46:25.560Z,6.60
2018-11-10T05:48:54.308Z,6.60
2018-11-10T05:51:22.656Z,6.60
2018-11-10T05:53:51.161Z,6.60
2018-11-10T05:56:19.540Z,6.60
2018-11-10T05:58:48.104Z,6.70
2018-11-10T06:01:16.701Z,6.60
2018-11-10T06:03:45.110Z,6.60
2018-11-10T06:06:13.480Z,6.60
2018-11-10T06:08:41.995Z,6.50
2018-11-10T06:11:12.433Z,6.60
2018-11-10T06:13:41.147Z,6.50
2018-11-10T06:16:09.574Z,6.40
2018-11-10T06:18:37.947Z,6.40
2018-11-10T06:21:06.607Z,6.40
2018-11-10T06:23:35.021Z,6.40
2018-11-10T06:26:03.439Z,6.40
2018-11-10T06:28:31.775Z,6.40
2018-11-10T06:31:00.160Z,6.50
2018-11-10T06:33:28.789Z,6.40
2018-11-10T06:35:57.527Z,6.50
2018-11-10T06:38:26.141Z,6.50
2018-11-10T06:40:55.947Z,6.50
2018-11-10T06:43:24.350Z,6.50
2018-11-10T06:45:52.772Z,6.50
2018-11-10T06:48:21.171Z,6.50
2018-11-10T06:50:50.492Z,6.60
2018-11-10T06:53:18.915Z,6.50
2018-11-10T06:55:47.592Z,6.50
2018-11-10T06:58:15.960Z,6.50
2018-11-10T07:00:44.608Z,6.40
2018-11-10T07:03:13.330Z,6.40
2018-11-10T07:05:41.721Z,6.40
2018-11-10T07:08:10.433Z,6.50
2018-11-10T07:10:38.972Z,6.40
2018-11-10T07:13:07.795Z,6.50
2018-11-10T07:15:37.658Z,6.50
2018-11-10T07:18:06.416Z,6.50
2018-11-10T07:20:34.767Z,6.50
2018-11-10T07:23:03.150Z,6.50
2018-11-10T07:25:31.804Z,6.40
2018-11-10T07:28:00.442Z,6.40
2018-11-10T07:30:28.817Z,6.40
2018-11-10T07:32:57.267Z,6.50
2018-11-10T07:35:25.888Z,6.50
2018-11-10T07:37:54.332Z,6.50
2018-11-10T07:40:22.728Z,6.50
2018-11-10T07:42:51.293Z,6.50
2018-11-10T07:45:19.708Z,6.50
2018-11-10T07:47:48.142Z,6.40
2018-11-10T07:50:16.576Z,6.40
2018-11-10T07:52:45.671Z,6.40
2018-11-10T07:55:15.405Z,6.30
2018-11-10T07:57:44.224Z,6.40
2018-11-10T08:00:15.243Z,6.40
2018-11-10T08:02:43.682Z,6.40
2018-11-10T08:05:13.027Z,6.40
2018-11-10T08:07:43.023Z,6.40
2018-11-10T08:10:12.824Z,6.50
2018-11-10T08:12:41.394Z,6.60
2018-11-10T08:15:13.389Z,6.70
2018-11-10T08:17:42.376Z,6.80
2018-11-10T08:20:11.611Z,6.70
2018-11-10T08:22:40.483Z,6.80
2018-11-10T08:25:12.211Z,6.80
2018-11-10T08:27:40.582Z,6.70
2018-11-10T08:30:11.148Z,6.70
2018-11-10T08:32:40.148Z,6.80
2018-11-10T08:35:10.457Z,6.90
2018-11-10T08:37:39.200Z,7.00
2018-11-10T08:40:10.371Z,7.00
2018-11-10T08:42:39.174Z,7.10
2018-11-10T08:45:09.242Z,7.10
2018-11-10T08:47:38.143Z,7.10
2018-11-10T08:50:08.034Z,7.10
2018-11-10T08:52:36.893Z,7.10
2018-11-10T08:55:06.287Z,7.20
2018-11-10T08:57:35.045Z,7.20
2018-11-10T09:00:03.954Z,7.20
2018-11-10T09:02:32.365Z,7.20
2018-11-10T09:05:00.792Z,7.30
2018-11-10T09:07:29.471Z,7.30
2018-11-10T09:09:58.676Z,7.30
2018-11-10T09:12:27.030Z,7.30
2018-11-10T09:14:55.485Z,7.40
2018-11-10T09:17:24.095Z,7.50
2018-11-10T09:19:52.512Z,7.60
2018-11-10T09:22:21.240Z,7.60
2018-11-10T09:24:50.202Z,7.70
2018-11-10T09:27:19.348Z,7.80
2018-11-10T09:29:48.009Z,7.80
2018-11-10T09:32:16.427Z,7.80
2018-11-10T09:34:44.867Z,7.80
2018-11-10T09:37:13.959Z,7.80
2018-11-10T09:39:43.107Z,7.90
2018-11-10T09:42:11.987Z,7.90
2018-11-10T09:44:40.313Z,8.00
2018-11-10T09:47:09.021Z,8.20
2018-11-10T09:49:37.702Z,8.40
2018-11-10T09:52:06.179Z,8.40
2018-11-10T09:54:34.633Z,8.40
2018-11-10T09:57:04.341Z,8.60
2018-11-10T09:59:32.891Z,8.70
2018-11-10T10:02:01.632Z,8.60
2018-11-10T10:04:30.736Z,8.50
2018-11-10T10:06:59.398Z,8.60
2018-11-10T10:09:28.065Z,8.80
2018-11-10T10:11:56.765Z,9.10
2018-11-10T10:14:25.209Z,9.20
2018-11-10T10:16:53.624Z,9.40
2018-11-10T10:19:22.218Z,9.50
2018-11-10T10:21:50.928Z,9.60
2018-11-10T10:24:19.352Z,9.60
2018-11-10T10:26:47.981Z,9.40
2018-11-10T10:29:16.396Z,9.30
2018-11-10T10:31:45.352Z,9.30
2018-11-10T10:34:13.802Z,9.50
2018-11-10T10:36:42.173Z,9.50
2018-11-10T10:39:11.103Z,9.50
2018-11-10T10:41:39.867Z,9.50
2018-11-10T10:44:10.345Z,9.40
2018-11-10T10:46:38.989Z,9.30
2018-11-10T10:49:07.430Z,9.20
2018-11-10T10:51:36.187Z,9.20
2018-11-10T10:54:04.623Z,9.20
2018-11-10T10:56:33.208Z,9.10
2018-11-10T10:59:01.791Z,9.40
2018-11-10T11:01:35.452Z,9.80
2018-11-10T11:04:09.074Z,9.70
2018-11-10T11:06:37.738Z,9.60
2018-11-10T11:09:07.638Z,9.60
2018-11-10T11:11:36.315Z,9.60
2018-11-10T11:14:05.035Z,9.80
2018-11-10T11:16:34.018Z,9.90
2018-11-10T11:19:02.709Z,9.70
2018-11-10T11:21:38.066Z,10.20
2018-11-10T11:24:06.662Z,10.70
2018-11-10T11:26:35.990Z,10.90
2018-11-10T11:29:04.513Z,11.00
2018-11-10T11:31:32.889Z,11.30
2018-11-10T11:34:01.326Z,11.30
2018-11-10T11:36:30.140Z,11.30
2018-11-10T11:38:59.026Z,11.40
2018-11-10T11:41:28.395Z,11.50
2018-11-10T11:43:56.954Z,11.80
2018-11-10T11:46:25.547Z,12.00
2018-11-10T11:48:53.950Z,12.00
2018-11-10T11:51:22.533Z,12.10
2018-11-10T11:53:51.010Z,12.20
2018-11-10T11:56:19.481Z,12.10
2018-11-10T11:58:47.883Z,12.00
2018-11-10T12:01:16.512Z,12.10
2018-11-10T12:03:45.448Z,12.00
2018-11-10T12:06:14.268Z,12.20
2018-11-10T12:08:42.855Z,12.10
2018-11-10T12:11:11.580Z,12.00
2018-11-10T12:13:40.594Z,12.00
2018-11-10T12:16:09.160Z,12.00
2018-11-10T12:18:38.151Z,12.10
2018-11-10T12:21:07.230Z,12.00
2018-11-10T12:23:36.152Z,12.00
2018-11-10T12:26:05.185Z,12.00
2018-11-10T12:28:34.481Z,11.70
2018-11-10T12:31:02.904Z,11.70
2018-11-10T12:33:31.318Z,11.50
2018-11-10T12:35:59.791Z,11.60
2018-11-10T12:38:28.492Z,11.70
2018-11-10T12:40:56.907Z,11.80
2018-11-10T12:43:25.336Z,11.80
2018-11-10T12:45:54.085Z,11.70
2018-11-10T12:48:23.068Z,11.50
2018-11-10T12:50:51.724Z,11.50
2018-11-10T12:53:20.126Z,11.30
2018-11-10T12:55:48.557Z,11.20
2018-11-10T12:58:16.995Z,11.10
2018-11-10T13:00:45.389Z,11.30
2018-11-10T13:03:14.447Z,11.10
2018-11-10T13:05:42.908Z,11.10
2018-11-10T13:08:11.323Z,11.10
2018-11-10T13:10:39.762Z,11.10
2018-11-10T13:13:08.619Z,11.00
2018-11-10T13:15:37.104Z,11.00
2018-11-10T13:18:05.541Z,11.10
2018-11-10T13:20:34.375Z,11.10
2018-11-10T13:23:03.602Z,11.00
2018-11-10T13:25:32.365Z,11.00
2018-11-10T13:28:00.755Z,11.00
2018-11-10T13:30:29.165Z,11.00
2018-11-10T13:32:57.561Z,11.00
2018-11-10T13:35:26.171Z,11.00
2018-11-10T13:37:54.574Z,10.90
2018-11-10T13:40:23.302Z,10.90
2018-11-10T13:42:51.937Z,10.90
2018-11-10T13:45:20.972Z,10.90
2018-11-10T13:47:49.654Z,10.90
2018-11-10T13:50:18.080Z,10.80
2018-11-10T13:52:46.804Z,10.80
2018-11-10T13:55:14.912Z,10.80
2018-11-10T13:57:43.336Z,10.80
2018-11-10T14:00:14.335Z,10.70
2018-11-10T14:02:43.595Z,10.80
2018-11-10T14:05:13.526Z,10.80
2018-11-10T14:07:42.529Z,10.80
2018-11-10T14:10:13.351Z,10.90
2018-11-10T14:12:43.047Z,10.80
2018-11-10T14:15:11.445Z,10.80
2018-11-10T14:17:41.244Z,10.70
2018-11-10T14:20:12.334Z,10.70
2018-11-10T14:22:41.094Z,10.60
2018-11-10T14:25:11.640Z,10.60
2018-11-10T14:27:41.963Z,10.50
2018-11-10T14:30:12.729Z,10.50
2018-11-10T14:32:42.316Z,10.60
2018-11-10T14:35:11.157Z,10.60
2018-11-10T14:37:39.866Z,10.60
2018-11-10T14:40:11.382Z,10.50
2018-11-10T14:42:41.020Z,10.40
2018-11-10T14:45:12.121Z,10.30
2018-11-10T14:47:41.709Z,10.10
2018-11-10T14:50:11.358Z,10.00
2018-11-10T14:52:40.229Z,9.90
2018-11-10T14:55:09.623Z,9.70
2018-11-10T14:57:38.462Z,9.60
2018-11-10T15:00:14.231Z,9.50
2018-11-10T15:02:42.864Z,9.40
2018-11-10T15:05:12.688Z,9.30
2018-11-10T15:07:42.709Z,9.20
2018-11-10T15:10:13.835Z,9.00
2018-11-10T15:12:43.692Z,9.00
2018-11-10T15:15:13.555Z,8.90
2018-11-10T15:17:42.711Z,8.80
2018-11-10T15:20:12.691Z,8.70
2018-11-10T15:22:41.162Z,8.60
2018-11-10T15:25:12.091Z,8.50
2018-11-10T15:27:40.976Z,8.40
2018-11-10T15:30:12.748Z,8.30
2018-11-10T15:32:42.150Z,8.30
2018-11-10T15:35:12.268Z,8.20
2018-11-10T15:37:41.651Z,8.10
2018-11-10T15:40:11.489Z,8.00
2018-11-10T15:42:39.879Z,8.00
2018-11-10T15:45:10.004Z,7.90
2018-11-10T15:47:38.433Z,7.80
2018-11-10T15:50:08.406Z,7.80
2018-11-10T15:52:36.854Z,7.70
2018-11-10T15:55:06.412Z,7.60
2018-11-10T15:57:35.243Z,7.50
2018-11-10T16:00:03.818Z,7.50
2018-11-10T16:02:32.416Z,7.40
2018-11-10T16:05:00.822Z,7.30
2018-11-10T16:07:29.309Z,7.30
2018-11-10T16:09:59.008Z,7.20
2018-11-10T16:12:27.974Z,7.20
2018-11-10T16:14:56.409Z,7.20
2018-11-10T16:17:24.996Z,7.10
2018-11-10T16:19:53.519Z,7.10
2018-11-10T16:22:21.917Z,7.00
2018-11-10T16:24:50.443Z,7.00
2018-11-10T16:27:18.973Z,6.90
2018-11-10T16:29:50.721Z,6.90
2018-11-10T16:32:19.516Z,6.80
2018-11-10T16:34:48.255Z,6.80
2018-11-10T16:37:16.665Z,6.80
2018-11-10T16:39:45.543Z,6.70
2018-11-10T16:42:14.017Z,6.60
2018-11-10T16:44:42.611Z,6.60
2018-11-10T16:47:11.400Z,6.60
2018-11-10T16:49:39.766Z,6.60
2018-11-10T16:52:08.221Z,6.50
2018-11-10T16:54:37.024Z,6.50
2018-11-10T16:57:05.794Z,6.50
2018-11-10T16:59:34.283Z,6.50
2018-11-10T17:02:02.836Z,6.40
2018-11-10T17:04:31.463Z,6.40
2018-11-10T17:07:00.225Z,6.40
2018-11-10T17:09:28.665Z,6.50
2018-11-10T17:11:57.068Z,6.50
2018-11-10T17:14:25.580Z,6.50
2018-11-10T17:16:53.984Z,6.60
2018-11-10T17:19:22.991Z,6.70
2018-11-10T17:21:51.943Z,6.70
2018-11-10T17:24:20.213Z,6.80
2018-11-10T17:26:48.830Z,6.90
2018-11-10T17:29:17.392Z,7.00
2018-11-10T17:31:46.134Z,7.00
2018-11-10T17:34:14.700Z,7.10
2018-11-10T17:36:43.300Z,7.20
2018-11-10T17:39:11.986Z,7.20
2018-11-10T17:41:40.272Z,7.30
2018-11-10T17:44:10.066Z,7.30
2018-11-10T17:46:39.624Z,7.40
2018-11-10T17:49:08.456Z,7.40
2018-11-10T17:51:37.002Z,7.50
2018-11-10T17:54:05.747Z,7.50
2018-11-10T17:56:34.367Z,7.50
2018-11-10T17:59:03.093Z,7.60
2018-11-10T18:01:31.891Z,7.60
2018-11-10T18:04:00.862Z,7.60
2018-11-10T18:06:29.432Z,7.60
2018-11-10T18:08:58.172Z,7.60
2018-11-10T18:11:26.587Z,7.70
2018-11-10T18:13:55.228Z,7.60
2018-11-10T18:16:23.589Z,7.60
2018-11-10T18:18:52.076Z,7.60
2018-11-10T18:21:20.601Z,7.60
2018-11-10T18:23:49.266Z,7.50
2018-11-10T18:26:17.662Z,7.50
2018-11-10T18:28:46.061Z,7.40
2018-11-10T18:31:14.560Z,7.40
2018-11-10T18:33:43.114Z,7.40
2018-11-10T18:36:11.575Z,7.40
2018-11-10T18:38:40.161Z,7.40
2018-11-10T18:41:09.234Z,7.40
2018-11-10T18:43:37.776Z,7.30
2018-11-10T18:46:06.615Z,7.40
2018-11-10T18:48:36.062Z,7.40
2018-11-10T18:51:04.816Z,7.40
2018-11-10T18:53:33.554Z,7.40
2018-11-10T18:56:01.988Z,7.40
2018-11-10T18:58:30.394Z,7.40
2018-11-10T19:00:59.056Z,7.40
2018-11-10T19:03:27.595Z,7.30
2018-11-10T19:05:56.260Z,7.30
2018-11-10T19:08:25.370Z,7.30
2018-11-10T19:10:55.001Z,7.30
2018-11-10T19:13:23.920Z,7.40
2018-11-10T19:15:52.657Z,7.40
2018-11-10T19:18:21.612Z,7.40
2018-11-10T19:20:50.615Z,7.50
2018-11-10T19:23:19.642Z,7.40
2018-11-10T19:25:48.065Z,7.40
2018-11-10T19:28:16.722Z,7.40
2018-11-10T19:30:45.234Z,7.40
2018-11-10T19:33:14.003Z,7.40
2018-11-10T19:35:42.815Z,7.40
2018-11-10T19:38:11.423Z,7.40
2018-11-10T19:40:40.112Z,7.40
2018-11-10T19:43:09.132Z,7.40
2018-11-10T19:45:38.399Z,7.40
2018-11-10T19:48:06.823Z,7.30
2018-11-10T19:50:35.531Z,7.40
2018-11-10T19:53:03.923Z,7.40
2018-11-10T19:55:32.850Z,7.40
2018-11-10T19:58:01.461Z,7.30
2018-11-10T20:00:29.908Z,7.30
2018-11-10T20:02:58.578Z,7.40
2018-11-10T20:05:27.071Z,7.40
2018-11-10T20:07:55.633Z,7.30
2018-11-10T20:10:24.056Z,7.40
2018-11-10T20:12:52.521Z,7.30
2018-11-10T20:15:21.302Z,7.40
2018-11-10T20:17:49.939Z,7.40
2018-11-10T20:20:19.291Z,7.40
2018-11-10T20:22:48.095Z,7.40
2018-11-10T20:25:18.014Z,7.40
2018-11-10T20:27:46.682Z,7.40
2018-11-10T20:30:17.528Z,7.40
2018-11-10T20:32:46.580Z,7.30
2018-11-10T20:35:15.862Z,7.30
2018-11-10T20:37:45.167Z,7.30
2018-11-10T20:40:15.003Z,7.30
2018-11-10T20:42:44.045Z,7.20
2018-11-10T20:45:15.282Z,7.20
2018-11-10T20:47:44.147Z,7.20
2018-11-10T20:50:13.309Z,7.20
2018-11-10T20:52:42.442Z,7.30
2018-11-10T20:55:11.743Z,7.30
2018-11-10T20:57:40.392Z,7.30
2018-11-10T21:00:11.565Z,7.30
2018-11-10T21:02:41.222Z,7.30
2018-11-10T21:05:11.116Z,7.30
2018-11-10T21:07:39.795Z,7.30
2018-11-10T21:10:12.204Z,7.30
2018-11-10T21:12:41.848Z,7.30
2018-11-10T21:15:11.072Z,7.30
2018-11-10T21:17:39.484Z,7.40
2018-11-10T21:20:09.943Z,7.40
2018-11-10T21:22:38.638Z,7.30
2018-11-10T21:25:09.340Z,7.30
2018-11-10T21:27:38.504Z,7.30
2018-11-10T21:30:09.077Z,7.30
2018-11-10T21:32:37.704Z,7.30
2018-11-10T21:35:07.319Z,7.30
2018-11-10T21:37:36.211Z,7.30
2018-11-10T21:40:06.548Z,7.20
2018-11-10T21:42:34.976Z,7.20
2018-11-10T21:45:03.577Z,7.20
2018-11-10T21:47:32.272Z,7.20
